sensor_id;sensor_type;location;lat;lon;timestamp;temperature;humidity
2453;DHT22;63678;47.994;7.854;2024-03-25T00:03:40;6.10;99.90
2453;DHT22;63678;47.994;7.854;2024-03-25T00:06:12;6.10;99.90
2453;DHT22;63678;47.994;7.854;2024-03-25T00:08:43;6.00;99.90
2453;DHT22;63678;47.994;7.854;2024-03-25T00:11:14;6.20;99.90
2453;DHT22;63678;47.994;7.854;2024-03-25T00:18:49;6.50;99.90
2453;DHT22;63678;47.994;7.854;2024-03-25T00:21:20;6.50;99.90
2453;DHT22;63678;47.994;7.854;2024-03-25T00:23:52;6.50;99.90
2453;DHT22;63678;47.994;7.854;2024-03-25T00:26:23;6.50;99.90
2453;DHT22;63678;47.994;7.854;2024-03-25T00:28:55;6.60;99.90
2453;DHT22;63678;47.994;7.854;2024-03-25T00:33:57;6.60;99.90
2453;DHT22;63678;47.994;7.854;2024-03-25T00:36:29;6.60;99.90
2453;DHT22;63678;47.994;7.854;2024-03-25T00:39:00;6.60;99.90
2453;DHT22;63678;47.994;7.854;2024-03-25T00:41:31;6.60;99.90
2453;DHT22;63678;47.994;7.854;2024-03-25T00:44:02;6.60;99.90
2453;DHT22;63678;47.994;7.854;2024-03-25T00:46:34;6.60;99.90
2453;DHT22;63678;47.994;7.854;2024-03-25T00:49:05;6.50;99.90
2453;DHT22;63678;47.994;7.854;2024-03-25T00:51:37;6.40;99.90
2453;DHT22;63678;47.994;7.854;2024-03-25T00:54:08;6.40;99.90
2453;DHT22;63678;47.994;7.854;2024-03-25T00:56:39;6.20;99.90
2453;DHT22;63678;47.994;7.854;2024-03-25T01:04:14;5.80;99.90
2453;DHT22;63678;47.994;7.854;2024-03-25T01:06:45;5.80;99.90
2453;DHT22;63678;47.994;7.854;2024-03-25T01:09:17;5.70;99.90
2453;DHT22;63678;47.994;7.854;2024-03-25T01:11:49;5.60;99.90
2453;DHT22;63678;47.994;7.854;2024-03-25T01:14:20;5.70;99.90
2453;DHT22;63678;47.994;7.854;2024-03-25T01:21:55;5.70;99.90
2453;DHT22;63678;47.994;7.854;2024-03-25T01:24:26;5.50;99.90
2453;DHT22;63678;47.994;7.854;2024-03-25T01:26:58;5.50;99.90
2453;DHT22;63678;47.994;7.854;2024-03-25T01:29:29;5.50;99.90
2453;DHT22;63678;47.994;7.854;2024-03-25T01:32:00;5.50;99.90
2453;DHT22;63678;47.994;7.854;2024-03-25T01:37:05;5.50;99.90
2453;DHT22;63678;47.994;7.854;2024-03-25T01:39:37;5.60;99.90
2453;DHT22;63678;47.994;7.854;2024-03-25T01:42:09;5.60;99.90
2453;DHT22;63678;47.994;7.854;2024-03-25T01:44:41;5.60;99.90
2453;DHT22;63678;47.994;7.854;2024-03-25T01:47:12;5.50;99.90
2453;DHT22;63678;47.994;7.854;2024-03-25T01:49:43;5.50;99.90
2453;DHT22;63678;47.994;7.854;2024-03-25T01:52:15;5.60;99.90
2453;DHT22;63678;47.994;7.854;2024-03-25T01:54:47;5.50;99.90
2453;DHT22;63678;47.994;7.854;2024-03-25T01:57:18;5.50;99.90
2453;DHT22;63678;47.994;7.854;2024-03-25T01:59:50;5.40;99.90
2453;DHT22;63678;47.994;7.854;2024-03-25T02:02:22;5.50;99.90
2453;DHT22;63678;47.994;7.854;2024-03-25T02:04:53;5.30;99.90
2453;DHT22;63678;47.994;7.854;2024-03-25T02:09:57;5.20;99.90
2453;DHT22;63678;47.994;7.854;2024-03-25T02:12:30;5.20;99.90
2453;DHT22;63678;47.994;7.854;2024-03-25T02:15:04;5.20;99.90
2453;DHT22;63678;47.994;7.854;2024-03-25T02:17:36;5.20;99.90
2453;DHT22;63678;47.994;7.854;2024-03-25T02:20:08;5.20;99.90
2453;DHT22;63678;47.994;7.854;2024-03-25T02:22:40;5.20;99.90
2453;DHT22;63678;47.994;7.854;2024-03-25T02:25:11;5.20;99.90
2453;DHT22;63678;47.994;7.854;2024-03-25T02:27:43;5.20;99.90
2453;DHT22;63678;47.994;7.854;2024-03-25T02:30:14;5.20;99.90
2453;DHT22;63678;47.994;7.854;2024-03-25T02:32:45;5.20;99.90
2453;DHT22;63678;47.994;7.854;2024-03-25T02:35:17;5.20;99.90
2453;DHT22;63678;47.994;7.854;2024-03-25T02:37:50;5.20;99.90
2453;DHT22;63678;47.994;7.854;2024-03-25T02:40:22;5.20;99.90
2453;DHT22;63678;47.994;7.854;2024-03-25T02:42:53;5.20;99.90
2453;DHT22;63678;47.994;7.854;2024-03-25T02:45:25;5.30;99.90
2453;DHT22;63678;47.994;7.854;2024-03-25T02:47:56;5.20;99.90
2453;DHT22;63678;47.994;7.854;2024-03-25T02:50:28;5.20;99.90
2453;DHT22;63678;47.994;7.854;2024-03-25T02:55:30;5.20;99.90
2453;DHT22;63678;47.994;7.854;2024-03-25T02:58:02;5.20;99.90
2453;DHT22;63678;47.994;7.854;2024-03-25T03:03:05;5.20;99.90
2453;DHT22;63678;47.994;7.854;2024-03-25T03:05:36;5.20;99.90
2453;DHT22;63678;47.994;7.854;2024-03-25T03:08:07;5.20;99.90
2453;DHT22;63678;47.994;7.854;2024-03-25T03:13:10;5.30;99.90
2453;DHT22;63678;47.994;7.854;2024-03-25T03:15:45;5.30;99.90
2453;DHT22;63678;47.994;7.854;2024-03-25T03:18:16;5.30;99.90
2453;DHT22;63678;47.994;7.854;2024-03-25T03:20:48;5.30;99.90
2453;DHT22;63678;47.994;7.854;2024-03-25T03:23:20;5.30;99.90
2453;DHT22;63678;47.994;7.854;2024-03-25T03:25:51;5.20;99.90
2453;DHT22;63678;47.994;7.854;2024-03-25T03:28:22;5.10;99.90
2453;DHT22;63678;47.994;7.854;2024-03-25T03:30:54;5.10;99.90
2453;DHT22;63678;47.994;7.854;2024-03-25T03:33:25;5.00;99.90
2453;DHT22;63678;47.994;7.854;2024-03-25T03:35:57;5.10;99.90
2453;DHT22;63678;47.994;7.854;2024-03-25T03:38:29;5.10;99.90
2453;DHT22;63678;47.994;7.854;2024-03-25T03:41:02;5.10;99.90
2453;DHT22;63678;47.994;7.854;2024-03-25T03:43:34;5.20;99.90
2453;DHT22;63678;47.994;7.854;2024-03-25T03:46:06;5.10;99.90
2453;DHT22;63678;47.994;7.854;2024-03-25T03:48:38;5.10;99.90
2453;DHT22;63678;47.994;7.854;2024-03-25T03:51:10;5.00;99.90
2453;DHT22;63678;47.994;7.854;2024-03-25T03:53:42;5.00;99.90
2453;DHT22;63678;47.994;7.854;2024-03-25T03:58:46;4.80;99.90
2453;DHT22;63678;47.994;7.854;2024-03-25T04:01:18;4.90;99.90
2453;DHT22;63678;47.994;7.854;2024-03-25T04:06:22;4.70;99.90
2453;DHT22;63678;47.994;7.854;2024-03-25T04:08:54;4.70;99.90
2453;DHT22;63678;47.994;7.854;2024-03-25T04:11:26;4.70;99.90
2453;DHT22;63678;47.994;7.854;2024-03-25T04:19:02;4.50;99.90
2453;DHT22;63678;47.994;7.854;2024-03-25T04:21:33;4.50;99.90
2453;DHT22;63678;47.994;7.854;2024-03-25T04:24:05;4.50;99.90
2453;DHT22;63678;47.994;7.854;2024-03-25T04:26:37;4.40;99.90
2453;DHT22;63678;47.994;7.854;2024-03-25T04:31:41;4.30;99.90
2453;DHT22;63678;47.994;7.854;2024-03-25T04:34:13;4.30;99.90
2453;DHT22;63678;47.994;7.854;2024-03-25T04:36:45;4.30;99.90
2453;DHT22;63678;47.994;7.854;2024-03-25T04:41:50;4.30;99.90
2453;DHT22;63678;47.994;7.854;2024-03-25T04:44:22;4.30;99.90
2453;DHT22;63678;47.994;7.854;2024-03-25T04:46:54;4.20;99.90
2453;DHT22;63678;47.994;7.854;2024-03-25T04:49:25;4.20;99.90
2453;DHT22;63678;47.994;7.854;2024-03-25T04:51:57;4.20;99.90
2453;DHT22;63678;47.994;7.854;2024-03-25T04:54:29;4.20;99.90
2453;DHT22;63678;47.994;7.854;2024-03-25T04:57:01;4.10;99.90
2453;DHT22;63678;47.994;7.854;2024-03-25T05:02:05;4.10;99.90
2453;DHT22;63678;47.994;7.854;2024-03-25T05:04:36;4.00;99.90
2453;DHT22;63678;47.994;7.854;2024-03-25T05:07:08;3.90;99.90
2453;DHT22;63678;47.994;7.854;2024-03-25T05:09:40;3.90;99.90
2453;DHT22;63678;47.994;7.854;2024-03-25T05:14:44;3.80;99.90
2453;DHT22;63678;47.994;7.854;2024-03-25T05:17:16;3.70;99.90
2453;DHT22;63678;47.994;7.854;2024-03-25T05:19:50;3.70;99.90
2453;DHT22;63678;47.994;7.854;2024-03-25T05:22:22;5.00;99.90
2453;DHT22;63678;47.994;7.854;2024-03-25T05:24:54;4.20;99.90
2453;DHT22;63678;47.994;7.854;2024-03-25T05:27:25;4.00;99.90
2453;DHT22;63678;47.994;7.854;2024-03-25T05:32:29;3.80;99.90
2453;DHT22;63678;47.994;7.854;2024-03-25T05:35:01;3.80;99.90
2453;DHT22;63678;47.994;7.854;2024-03-25T05:37:33;3.80;99.90
2453;DHT22;63678;47.994;7.854;2024-03-25T05:40:05;3.80;99.90
2453;DHT22;63678;47.994;7.854;2024-03-25T05:42:37;3.80;99.90
2453;DHT22;63678;47.994;7.854;2024-03-25T05:45:09;3.80;99.90
2453;DHT22;63678;47.994;7.854;2024-03-25T05:47:41;3.80;99.90
2453;DHT22;63678;47.994;7.854;2024-03-25T05:50:13;3.90;99.90
2453;DHT22;63678;47.994;7.854;2024-03-25T05:52:44;7.00;99.90
2453;DHT22;63678;47.994;7.854;2024-03-25T05:57:48;4.90;99.90
2453;DHT22;63678;47.994;7.854;2024-03-25T06:00:20;4.50;99.90
2453;DHT22;63678;47.994;7.854;2024-03-25T06:02:52;4.30;99.90
2453;DHT22;63678;47.994;7.854;2024-03-25T06:05:25;4.10;99.90
2453;DHT22;63678;47.994;7.854;2024-03-25T06:07:57;4.10;99.90
2453;DHT22;63678;47.994;7.854;2024-03-25T06:10:29;4.00;99.90
2453;DHT22;63678;47.994;7.854;2024-03-25T06:13:00;4.00;99.90
2453;DHT22;63678;47.994;7.854;2024-03-25T06:15:31;4.00;99.90
2453;DHT22;63678;47.994;7.854;2024-03-25T06:18:03;4.10;99.90
2453;DHT22;63678;47.994;7.854;2024-03-25T06:20:35;4.10;99.90
2453;DHT22;63678;47.994;7.854;2024-03-25T06:23:07;4.20;99.90
2453;DHT22;63678;47.994;7.854;2024-03-25T06:25:39;4.20;99.90
2453;DHT22;63678;47.994;7.854;2024-03-25T06:28:10;4.20;99.90
2453;DHT22;63678;47.994;7.854;2024-03-25T06:30:43;4.20;99.90
2453;DHT22;63678;47.994;7.854;2024-03-25T06:41:29;4.40;99.90
2453;DHT22;63678;47.994;7.854;2024-03-25T06:44:00;4.40;99.90
2453;DHT22;63678;47.994;7.854;2024-03-25T06:46:33;4.40;99.90
2453;DHT22;63678;47.994;7.854;2024-03-25T06:49:05;4.50;99.90
2453;DHT22;63678;47.994;7.854;2024-03-25T06:54:09;4.60;99.90
2453;DHT22;63678;47.994;7.854;2024-03-25T06:56:40;4.60;99.90
2453;DHT22;63678;47.994;7.854;2024-03-25T06:59:13;4.60;99.90
2453;DHT22;63678;47.994;7.854;2024-03-25T07:04:17;4.70;99.90
2453;DHT22;63678;47.994;7.854;2024-03-25T07:06:49;4.90;99.90
2453;DHT22;63678;47.994;7.854;2024-03-25T07:09:21;5.30;99.90
2453;DHT22;63678;47.994;7.854;2024-03-25T07:19:29;6.20;99.90
2453;DHT22;63678;47.994;7.854;2024-03-25T07:22:01;6.80;99.90
2453;DHT22;63678;47.994;7.854;2024-03-25T07:27:05;6.90;99.90
2453;DHT22;63678;47.994;7.854;2024-03-25T07:29:37;6.80;99.90
2453;DHT22;63678;47.994;7.854;2024-03-25T07:32:09;6.50;99.90
2453;DHT22;63678;47.994;7.854;2024-03-25T07:39:46;9.50;99.90
2453;DHT22;63678;47.994;7.854;2024-03-25T07:42:18;10.60;99.90
2453;DHT22;63678;47.994;7.854;2024-03-25T07:44:50;9.00;99.90
2453;DHT22;63678;47.994;7.854;2024-03-25T07:47:22;8.40;99.90
2453;DHT22;63678;47.994;7.854;2024-03-25T07:49:54;8.70;99.90
2453;DHT22;63678;47.994;7.854;2024-03-25T07:54:58;9.70;99.90
2453;DHT22;63678;47.994;7.854;2024-03-25T07:57:31;9.90;99.90
2453;DHT22;63678;47.994;7.854;2024-03-25T08:00:03;9.90;99.90
2453;DHT22;63678;47.994;7.854;2024-03-25T08:02:43;9.60;99.90
2453;DHT22;63678;47.994;7.854;2024-03-25T08:05:16;9.60;99.90
2453;DHT22;63678;47.994;7.854;2024-03-25T08:07:47;9.90;99.90
2453;DHT22;63678;47.994;7.854;2024-03-25T08:10:19;10.30;99.90
2453;DHT22;63678;47.994;7.854;2024-03-25T08:15:23;11.10;99.90
2453;DHT22;63678;47.994;7.854;2024-03-25T08:17:55;10.70;99.90
2453;DHT22;63678;47.994;7.854;2024-03-25T08:20:26;11.10;99.90
2453;DHT22;63678;47.994;7.854;2024-03-25T08:25:31;11.20;99.90
2453;DHT22;63678;47.994;7.854;2024-03-25T08:28:04;12.50;99.90
2453;DHT22;63678;47.994;7.854;2024-03-25T08:30:36;13.40;99.90
2453;DHT22;63678;47.994;7.854;2024-03-25T08:33:07;14.10;99.90
2453;DHT22;63678;47.994;7.854;2024-03-25T08:35:39;14.70;99.90
2453;DHT22;63678;47.994;7.854;2024-03-25T08:38:11;14.70;99.90
2453;DHT22;63678;47.994;7.854;2024-03-25T08:40:43;16.40;99.90
2453;DHT22;63678;47.994;7.854;2024-03-25T08:43:14;17.30;99.90
2453;DHT22;63678;47.994;7.854;2024-03-25T08:45:46;18.00;99.90
2453;DHT22;63678;47.994;7.854;2024-03-25T08:50:50;16.90;99.70
2453;DHT22;63678;47.994;7.854;2024-03-25T08:55:54;17.20;98.90
2453;DHT22;63678;47.994;7.854;2024-03-25T08:58:26;17.90;98.00
2453;DHT22;63678;47.994;7.854;2024-03-25T09:00:58;17.30;95.50
2453;DHT22;63678;47.994;7.854;2024-03-25T09:03:30;17.50;95.40
2453;DHT22;63678;47.994;7.854;2024-03-25T09:06:02;17.10;96.20
2453;DHT22;63678;47.994;7.854;2024-03-25T09:08:34;16.90;95.30
2453;DHT22;63678;47.994;7.854;2024-03-25T09:11:26;16.50;96.10
2453;DHT22;63678;47.994;7.854;2024-03-25T09:13:58;16.70;95.80
2453;DHT22;63678;47.994;7.854;2024-03-25T09:16:30;16.50;95.80
2453;DHT22;63678;47.994;7.854;2024-03-25T09:21:35;17.10;94.30
2453;DHT22;63678;47.994;7.854;2024-03-25T09:26:39;15.90;93.90
2453;DHT22;63678;47.994;7.854;2024-03-25T09:29:11;16.00;93.30
2453;DHT22;63678;47.994;7.854;2024-03-25T09:34:15;16.10;92.30
2453;DHT22;63678;47.994;7.854;2024-03-25T09:36:47;16.70;91.20
2453;DHT22;63678;47.994;7.854;2024-03-25T09:39:19;17.30;90.90
2453;DHT22;63678;47.994;7.854;2024-03-25T09:41:54;17.20;90.00
2453;DHT22;63678;47.994;7.854;2024-03-25T09:44:28;16.70;91.10
2453;DHT22;63678;47.994;7.854;2024-03-25T09:47:02;16.30;91.50
2453;DHT22;63678;47.994;7.854;2024-03-25T09:49:34;17.00;91.00
2453;DHT22;63678;47.994;7.854;2024-03-25T09:52:07;17.30;90.70
2453;DHT22;63678;47.994;7.854;2024-03-25T09:54:39;17.40;90.00
2453;DHT22;63678;47.994;7.854;2024-03-25T09:57:12;16.90;88.70
2453;DHT22;63678;47.994;7.854;2024-03-25T09:59:43;16.60;89.80
2453;DHT22;63678;47.994;7.854;2024-03-25T10:02:16;15.50;91.10
2453;DHT22;63678;47.994;7.854;2024-03-25T10:04:48;15.70;88.80
2453;DHT22;63678;47.994;7.854;2024-03-25T10:07:24;14.90;91.40
2453;DHT22;63678;47.994;7.854;2024-03-25T10:09:59;14.70;90.80
2453;DHT22;63678;47.994;7.854;2024-03-25T10:12:36;14.80;90.80
2453;DHT22;63678;47.994;7.854;2024-03-25T10:15:08;15.90;90.30
2453;DHT22;63678;47.994;7.854;2024-03-25T10:17:40;15.30;89.30
2453;DHT22;63678;47.994;7.854;2024-03-25T10:20:15;15.30;90.50
2453;DHT22;63678;47.994;7.854;2024-03-25T10:22:46;15.00;91.20
2453;DHT22;63678;47.994;7.854;2024-03-25T10:25:28;15.50;91.10
2453;DHT22;63678;47.994;7.854;2024-03-25T10:28:01;15.40;91.10
2453;DHT22;63678;47.994;7.854;2024-03-25T10:30:33;16.00;89.90
2453;DHT22;63678;47.994;7.854;2024-03-25T10:33:06;15.30;91.00
2453;DHT22;63678;47.994;7.854;2024-03-25T10:35:39;15.70;90.20
2453;DHT22;63678;47.994;7.854;2024-03-25T10:38:14;15.80;90.00
2453;DHT22;63678;47.994;7.854;2024-03-25T10:40:49;16.30;90.20
2453;DHT22;63678;47.994;7.854;2024-03-25T10:43:27;16.40;90.00
2453;DHT22;63678;47.994;7.854;2024-03-25T10:46:00;16.60;90.00
2453;DHT22;63678;47.994;7.854;2024-03-25T10:48:35;15.60;90.80
2453;DHT22;63678;47.994;7.854;2024-03-25T10:51:09;15.00;90.70
2453;DHT22;63678;47.994;7.854;2024-03-25T10:53:43;16.70;90.30
2453;DHT22;63678;47.994;7.854;2024-03-25T10:56:15;16.70;89.20
2453;DHT22;63678;47.994;7.854;2024-03-25T10:58:50;16.90;89.10
2453;DHT22;63678;47.994;7.854;2024-03-25T11:01:24;16.70;89.20
2453;DHT22;63678;47.994;7.854;2024-03-25T11:03:56;16.30;90.20
2453;DHT22;63678;47.994;7.854;2024-03-25T11:06:28;16.00;90.30
2453;DHT22;63678;47.994;7.854;2024-03-25T11:09:00;16.50;90.80
2453;DHT22;63678;47.994;7.854;2024-03-25T11:11:34;16.90;90.80
2453;DHT22;63678;47.994;7.854;2024-03-25T11:14:15;16.80;90.30
2453;DHT22;63678;47.994;7.854;2024-03-25T11:16:54;16.00;91.00
2453;DHT22;63678;47.994;7.854;2024-03-25T11:19:28;16.10;91.00
2453;DHT22;63678;47.994;7.854;2024-03-25T11:22:10;16.40;91.30
2453;DHT22;63678;47.994;7.854;2024-03-25T11:24:44;16.20;91.10
2453;DHT22;63678;47.994;7.854;2024-03-25T11:27:21;15.80;91.20
2453;DHT22;63678;47.994;7.854;2024-03-25T11:32:26;16.10;91.30
2453;DHT22;63678;47.994;7.854;2024-03-25T11:34:59;15.50;91.70
2453;DHT22;63678;47.994;7.854;2024-03-25T11:37:52;14.90;91.60
2453;DHT22;63678;47.994;7.854;2024-03-25T11:40:24;14.80;92.10
2453;DHT22;63678;47.994;7.854;2024-03-25T11:50:34;15.30;91.90
2453;DHT22;63678;47.994;7.854;2024-03-25T11:53:06;15.90;91.50
2453;DHT22;63678;47.994;7.854;2024-03-25T11:55:38;16.40;91.40
2453;DHT22;63678;47.994;7.854;2024-03-25T12:00:46;16.20;91.50
2453;DHT22;63678;47.994;7.854;2024-03-25T12:08:29;16.60;91.40
2453;DHT22;63678;47.994;7.854;2024-03-25T12:11:02;15.90;91.30
2453;DHT22;63678;47.994;7.854;2024-03-25T12:18:52;16.00;91.10
2453;DHT22;63678;47.994;7.854;2024-03-25T12:21:24;16.20;90.90
2453;DHT22;63678;47.994;7.854;2024-03-25T12:23:57;15.90;91.80
2453;DHT22;63678;47.994;7.854;2024-03-25T12:26:31;16.30;91.90
2453;DHT22;63678;47.994;7.854;2024-03-25T12:29:03;16.50;91.50
2453;DHT22;63678;47.994;7.854;2024-03-25T12:31:35;16.60;91.70
2453;DHT22;63678;47.994;7.854;2024-03-25T12:34:12;16.50;91.20
2453;DHT22;63678;47.994;7.854;2024-03-25T12:36:44;16.60;91.20
2453;DHT22;63678;47.994;7.854;2024-03-25T12:39:16;16.10;91.70
2453;DHT22;63678;47.994;7.854;2024-03-25T12:44:23;16.20;91.00
2453;DHT22;63678;47.994;7.854;2024-03-25T12:49:30;15.50;91.50
2453;DHT22;63678;47.994;7.854;2024-03-25T12:52:06;15.40;91.70
2453;DHT22;63678;47.994;7.854;2024-03-25T12:57:11;16.00;92.10
2453;DHT22;63678;47.994;7.854;2024-03-25T12:59:43;16.10;91.60
2453;DHT22;63678;47.994;7.854;2024-03-25T13:02:16;16.10;92.00
2453;DHT22;63678;47.994;7.854;2024-03-25T13:04:48;16.00;92.30
2453;DHT22;63678;47.994;7.854;2024-03-25T13:09:51;16.00;91.50
2453;DHT22;63678;47.994;7.854;2024-03-25T13:14:55;16.10;91.80
2453;DHT22;63678;47.994;7.854;2024-03-25T13:19:59;16.10;91.20
2453;DHT22;63678;47.994;7.854;2024-03-25T13:22:31;16.10;91.30
2453;DHT22;63678;47.994;7.854;2024-03-25T13:32:41;15.60;91.60
2453;DHT22;63678;47.994;7.854;2024-03-25T13:37:44;15.80;91.60
2453;DHT22;63678;47.994;7.854;2024-03-25T13:50:24;16.30;90.90
2453;DHT22;63678;47.994;7.854;2024-03-25T13:55:27;16.50;90.20
2453;DHT22;63678;47.994;7.854;2024-03-25T14:05:36;16.20;90.60
2453;DHT22;63678;47.994;7.854;2024-03-25T14:08:09;15.80;91.00
2453;DHT22;63678;47.994;7.854;2024-03-25T14:10:43;16.10;90.90
2453;DHT22;63678;47.994;7.854;2024-03-25T14:13:14;16.30;90.80
2453;DHT22;63678;47.994;7.854;2024-03-25T14:15:45;16.40;90.60
2453;DHT22;63678;47.994;7.854;2024-03-25T14:20:52;16.20;90.00
2453;DHT22;63678;47.994;7.854;2024-03-25T14:23:24;16.00;90.50
2453;DHT22;63678;47.994;7.854;2024-03-25T14:25:55;15.90;90.10
2453;DHT22;63678;47.994;7.854;2024-03-25T14:28:27;16.00;90.80
2453;DHT22;63678;47.994;7.854;2024-03-25T14:33:30;16.00;90.40
2453;DHT22;63678;47.994;7.854;2024-03-25T14:36:02;15.90;90.50
2453;DHT22;63678;47.994;7.854;2024-03-25T14:41:07;16.00;90.20
2453;DHT22;63678;47.994;7.854;2024-03-25T14:43:39;15.80;90.50
2453;DHT22;63678;47.994;7.854;2024-03-25T14:46:11;15.90;90.30
2453;DHT22;63678;47.994;7.854;2024-03-25T14:48:44;15.60;89.90
2453;DHT22;63678;47.994;7.854;2024-03-25T14:51:15;15.50;90.90
2453;DHT22;63678;47.994;7.854;2024-03-25T14:56:20;15.50;91.10
2453;DHT22;63678;47.994;7.854;2024-03-25T15:01:23;15.50;91.40
2453;DHT22;63678;47.994;7.854;2024-03-25T15:03:54;15.60;91.20
2453;DHT22;63678;47.994;7.854;2024-03-25T15:06:26;15.70;91.30
2453;DHT22;63678;47.994;7.854;2024-03-25T15:08:58;17.10;91.40
2453;DHT22;63678;47.994;7.854;2024-03-25T15:14:02;15.70;91.10
2453;DHT22;63678;47.994;7.854;2024-03-25T15:16:34;15.70;91.10
2453;DHT22;63678;47.994;7.854;2024-03-25T15:19:05;15.60;91.20
2453;DHT22;63678;47.994;7.854;2024-03-25T15:31:47;15.30;90.10
2453;DHT22;63678;47.994;7.854;2024-03-25T15:34:19;15.20;90.60
2453;DHT22;63678;47.994;7.854;2024-03-25T15:44:28;15.20;90.40
2453;DHT22;63678;47.994;7.854;2024-03-25T15:49:32;15.20;90.80
2453;DHT22;63678;47.994;7.854;2024-03-25T15:54:35;15.10;91.10
2453;DHT22;63678;47.994;7.854;2024-03-25T15:57:06;15.10;91.10
2453;DHT22;63678;47.994;7.854;2024-03-25T16:02:11;15.00;90.90
2453;DHT22;63678;47.994;7.854;2024-03-25T16:04:43;15.00;91.40
2453;DHT22;63678;47.994;7.854;2024-03-25T16:09:47;14.80;91.20
2453;DHT22;63678;47.994;7.854;2024-03-25T16:12:18;14.90;91.40
2453;DHT22;63678;47.994;7.854;2024-03-25T16:27:29;13.50;90.70
2453;DHT22;63678;47.994;7.854;2024-03-25T16:30:00;14.40;91.10
2453;DHT22;63678;47.994;7.854;2024-03-25T16:32:35;14.40;91.40
2453;DHT22;63678;47.994;7.854;2024-03-25T16:35:07;14.30;91.50
2453;DHT22;63678;47.994;7.854;2024-03-25T16:42:43;14.00;91.30
2453;DHT22;63678;47.994;7.854;2024-03-25T16:50:19;13.70;91.40
2453;DHT22;63678;47.994;7.854;2024-03-25T17:02:59;13.40;91.20
2453;DHT22;63678;47.994;7.854;2024-03-25T17:05:31;13.40;91.30
2453;DHT22;63678;47.994;7.854;2024-03-25T17:08:03;13.30;91.20
2453;DHT22;63678;47.994;7.854;2024-03-25T17:18:12;13.10;91.10
2453;DHT22;63678;47.994;7.854;2024-03-25T17:28:21;12.90;92.00
2453;DHT22;63678;47.994;7.854;2024-03-25T17:30:55;12.80;90.80
2453;DHT22;63678;47.994;7.854;2024-03-25T17:35:58;12.60;90.90
2453;DHT22;63678;47.994;7.854;2024-03-25T17:38:30;12.50;91.10
2453;DHT22;63678;47.994;7.854;2024-03-25T17:43:37;12.30;90.90
2453;DHT22;63678;47.994;7.854;2024-03-25T17:48:40;12.10;92.20
2453;DHT22;63678;47.994;7.854;2024-03-25T17:51:11;12.10;92.30
2453;DHT22;63678;47.994;7.854;2024-03-25T17:56:14;11.90;92.50
2453;DHT22;63678;47.994;7.854;2024-03-25T17:58:46;11.80;92.80
2453;DHT22;63678;47.994;7.854;2024-03-25T18:01:18;11.60;93.20
2453;DHT22;63678;47.994;7.854;2024-03-25T18:03:49;11.50;93.90
2453;DHT22;63678;47.994;7.854;2024-03-25T18:06:21;11.40;93.90
2453;DHT22;63678;47.994;7.854;2024-03-25T18:13:57;11.20;93.70
2453;DHT22;63678;47.994;7.854;2024-03-25T18:19:01;11.10;93.80
2453;DHT22;63678;47.994;7.854;2024-03-25T18:21:32;11.00;93.70
2453;DHT22;63678;47.994;7.854;2024-03-25T18:24:04;11.00;94.10
2453;DHT22;63678;47.994;7.854;2024-03-25T18:26:36;9.90;93.60
2453;DHT22;63678;47.994;7.854;2024-03-25T18:31:40;10.90;94.40
2453;DHT22;63678;47.994;7.854;2024-03-25T18:34:11;10.80;94.60
2453;DHT22;63678;47.994;7.854;2024-03-25T18:36:43;10.80;94.30
2453;DHT22;63678;47.994;7.854;2024-03-25T18:39:15;10.70;94.50
2453;DHT22;63678;47.994;7.854;2024-03-25T18:44:18;10.60;95.70
2453;DHT22;63678;47.994;7.854;2024-03-25T18:46:49;10.50;96.40
2453;DHT22;63678;47.994;7.854;2024-03-25T18:54:25;10.50;96.40
2453;DHT22;63678;47.994;7.854;2024-03-25T18:56:57;10.40;96.40
2453;DHT22;63678;47.994;7.854;2024-03-25T18:59:28;10.40;96.60
2453;DHT22;63678;47.994;7.854;2024-03-25T19:02:00;10.40;97.10
2453;DHT22;63678;47.994;7.854;2024-03-25T19:07:03;10.20;96.40
2453;DHT22;63678;47.994;7.854;2024-03-25T19:12:07;10.20;97.00
2453;DHT22;63678;47.994;7.854;2024-03-25T19:14:38;10.20;97.60
2453;DHT22;63678;47.994;7.854;2024-03-25T19:17:10;10.10;97.60
2453;DHT22;63678;47.994;7.854;2024-03-25T19:19:41;10.00;98.00
2453;DHT22;63678;47.994;7.854;2024-03-25T19:22:12;10.00;98.30
2453;DHT22;63678;47.994;7.854;2024-03-25T19:24:44;9.90;98.20
2453;DHT22;63678;47.994;7.854;2024-03-25T19:27:15;9.90;98.10
2453;DHT22;63678;47.994;7.854;2024-03-25T19:29:48;9.80;98.30
2453;DHT22;63678;47.994;7.854;2024-03-25T19:32:20;9.60;98.60
2453;DHT22;63678;47.994;7.854;2024-03-25T19:34:51;9.60;98.70
2453;DHT22;63678;47.994;7.854;2024-03-25T19:37:23;9.60;99.90
2453;DHT22;63678;47.994;7.854;2024-03-25T19:40:17;10.90;99.90
2453;DHT22;63678;47.994;7.854;2024-03-25T19:42:48;11.50;99.90
2453;DHT22;63678;47.994;7.854;2024-03-25T19:45:20;11.70;99.90
2453;DHT22;63678;47.994;7.854;2024-03-25T19:47:51;11.10;98.60
2453;DHT22;63678;47.994;7.854;2024-03-25T19:52:55;10.20;98.90
2453;DHT22;63678;47.994;7.854;2024-03-25T19:55:27;9.90;98.70
2453;DHT22;63678;47.994;7.854;2024-03-25T19:57:59;9.70;99.10
2453;DHT22;63678;47.994;7.854;2024-03-25T20:00:31;9.60;99.50
2453;DHT22;63678;47.994;7.854;2024-03-25T20:03:03;9.50;98.90
2453;DHT22;63678;47.994;7.854;2024-03-25T20:05:35;9.40;99.80
2453;DHT22;63678;47.994;7.854;2024-03-25T20:08:07;9.40;99.70
2453;DHT22;63678;47.994;7.854;2024-03-25T20:10:38;9.30;99.80
2453;DHT22;63678;47.994;7.854;2024-03-25T20:13:10;9.30;99.90
2453;DHT22;63678;47.994;7.854;2024-03-25T20:15:45;9.30;99.90
2453;DHT22;63678;47.994;7.854;2024-03-25T20:18:17;9.20;99.90
2453;DHT22;63678;47.994;7.854;2024-03-25T20:20:49;9.20;99.90
2453;DHT22;63678;47.994;7.854;2024-03-25T20:23:21;9.10;99.90
2453;DHT22;63678;47.994;7.854;2024-03-25T20:25:52;9.20;99.90
2453;DHT22;63678;47.994;7.854;2024-03-25T20:36:02;9.00;99.90
2453;DHT22;63678;47.994;7.854;2024-03-25T20:41:07;9.00;99.90
2453;DHT22;63678;47.994;7.854;2024-03-25T20:43:42;9.00;99.90
2453;DHT22;63678;47.994;7.854;2024-03-25T20:48:47;9.10;99.90
2453;DHT22;63678;47.994;7.854;2024-03-25T20:51:19;9.10;99.90
2453;DHT22;63678;47.994;7.854;2024-03-25T20:56:23;9.00;99.80
2453;DHT22;63678;47.994;7.854;2024-03-25T21:01:27;10.40;99.90
2453;DHT22;63678;47.994;7.854;2024-03-25T21:03:59;10.10;99.90
2453;DHT22;63678;47.994;7.854;2024-03-25T21:06:31;9.80;99.90
2453;DHT22;63678;47.994;7.854;2024-03-25T21:09:03;9.60;99.90
2453;DHT22;63678;47.994;7.854;2024-03-25T21:21:43;9.50;98.60
2453;DHT22;63678;47.994;7.854;2024-03-25T21:24:14;9.60;98.30
2453;DHT22;63678;47.994;7.854;2024-03-25T21:36:55;9.70;98.10
2453;DHT22;63678;47.994;7.854;2024-03-25T21:39:27;9.60;98.50
2453;DHT22;63678;47.994;7.854;2024-03-25T21:44:31;9.50;98.80
2453;DHT22;63678;47.994;7.854;2024-03-25T21:49:35;9.50;98.90
2453;DHT22;63678;47.994;7.854;2024-03-25T21:52:06;9.50;98.70
2453;DHT22;63678;47.994;7.854;2024-03-25T21:54:38;9.50;98.60
2453;DHT22;63678;47.994;7.854;2024-03-25T21:57:10;9.50;98.60
2453;DHT22;63678;47.994;7.854;2024-03-25T21:59:42;9.50;98.80
2453;DHT22;63678;47.994;7.854;2024-03-25T22:04:46;9.40;98.70
2453;DHT22;63678;47.994;7.854;2024-03-25T22:09:51;9.40;99.50
2453;DHT22;63678;47.994;7.854;2024-03-25T22:12:22;9.30;99.90
2453;DHT22;63678;47.994;7.854;2024-03-25T22:14:54;9.30;99.90
2453;DHT22;63678;47.994;7.854;2024-03-25T22:19:58;9.10;99.90